Allegre, Kentucky
Current Conditions -  °F | °C
As of 7:58 PM on Wednesday 22 Oct 2014 (Local Time) from KHOP Reporting Station
Clear Clear  
Wind Chill: 51°   Ceiling: Unl
Heat Index: 51°   Visibility: 10mi
Dew Point: 41°   Wind: 3mph
Humidity: 69%   Direction: 20°NNE
Pressure: 30.22"   Gusts: NA
Location:  36.93°N, 87.22°W
Report Text: KHOP 230058Z AUTO 02003KT 10SM CLR 11/05 A3022 RMK AO2 SLP237 T01050050
Loading
Personal Weather Stations






























Interactive Weather Map
Tropical Storm Tracking
New forecast layout! Learn more

10-Day Weather Forecast

Advertisements
Track Severe Weather on mobile